Time;durP1;ratioP1;P1;durP2;ratioP2;P2;SDS_P1;SDS_P2;PMS_P1;PMS_P2;Temp;Humidity;BMP_temperature;BMP_pressure;BME280_temperature;BME280_humidity;BME280_pressure;Samples;Min_cycle;Max_cycle;Signal;HPM_P1;HPM_P2
2023/03/18 00:00:28;;;;;;;;;;;;;;;18.08;59.35;98975.75;2082562;28;20418;-57
2023/03/18 00:01:30;;;;;;;;;;;;;;;18.12;58.96;98970.81;2081683;28;19939;-58
2023/03/18 00:02:31;;;;;;;;;;;;;;;18.13;58.97;98966.28;2082247;28;19988;-59
2023/03/18 00:03:33;;;;;;;;;;;;;;;18.14;58.93;98968.78;2081948;28;20011;-57
2023/03/18 00:04:33;;;;;;;;;;;;;;;18.12;59.03;98973.50;2082999;28;19937;-58
2023/03/18 00:05:35;;;;;;;;;;;;;;;18.13;59.07;98968.97;2082141;28;19929;-58
2023/03/18 00:06:37;;;;;;;;;;;;;;;18.11;59.15;98962.94;2081758;28;19968;-58
2023/03/18 00:07:39;;;;;;;;;;;;;;;18.08;59.01;98959.66;2082753;28;19964;-59
2023/03/18 00:08:41;;;;;;;;;;;;;;;18.09;59.05;98963.16;2082610;28;19933;-58
2023/03/18 00:09:42;;;;;;;;;;;;;;;18.09;59.03;98966.66;2082726;28;19928;-58
2023/03/18 00:10:43;;;;;;;;;;;;;;;18.10;58.85;98967.50;2082262;28;19933;-58
2023/03/18 00:11:44;;;;;;;;;;;;;;;18.09;59.29;98972.03;2083354;28;19933;-59
2023/03/18 00:12:45;;;;;;;;;;;;;;;18.07;59.03;98971.38;2082481;28;21547;-59
2023/03/18 00:13:48;;;;;;;;;;;;;;;18.09;59.13;98961.28;2082082;28;20048;-59
2023/03/18 00:14:48;;;;;;;;;;;;;;;18.08;58.86;98970.38;2081589;28;21060;-58
2023/03/18 00:15:50;;;;;;;;;;;;;;;18.09;59.09;98957.78;2083454;28;19937;-58
2023/03/18 00:16:51;;;;;;;;;;;;;;;18.09;59.12;98957.78;2082647;28;19932;-59
2023/03/18 00:17:52;;;;;;;;;;;;;;;18.07;58.83;98963.34;2082620;28;20023;-58
2023/03/18 00:18:53;;;;;;;;;;;;;;;18.03;59.41;98959.38;2082864;28;19933;-59
2023/03/18 00:19:54;;;;;;;;;;;;;;;18.04;59.08;98965.56;2082832;28;19925;-58
2023/03/18 00:20:57;;;;;;;;;;;;;;;18.02;59.36;98960.38;2082084;28;20445;-57
2023/03/18 00:21:58;;;;;;;;;;;;;;;18.03;59.04;98967.44;2081699;28;19956;-59
2023/03/18 00:22:59;;;;;;;;;;;;;;;18.04;59.15;98963.72;2083547;28;20345;-57
2023/03/18 00:24:00;;;;;;;;;;;;;;;18.03;59.06;98967.44;2081459;28;19933;-57
2023/03/18 00:25:00;;;;;;;;;;;;;;;18.02;59.24;98968.44;2083627;28;19925;-56
2023/03/18 00:26:02;;;;;;;;;;;;;;;18.02;59.23;98959.56;2082532;28;19987;-53
2023/03/18 00:27:03;;;;;;;;;;;;;;;18.03;59.21;98967.44;2082611;28;19929;-54
2023/03/18 00:28:05;;;;;;;;;;;;;;;18.05;59.03;98959.19;2082242;28;20019;-53
2023/03/18 00:29:07;;;;;;;;;;;;;;;18.06;59.01;98971.59;2082806;28;19932;-56
2023/03/18 00:30:11;;;;;;;;;;;;;;;18.03;58.92;98964.75;2080913;28;19932;-54
2023/03/18 00:31:12;;;;;;;;;;;;;;;18.02;59.20;98971.13;2083269;28;19935;-57
2023/03/18 00:32:14;;;;;;;;;;;;;;;18.02;59.01;98970.28;2082374;28;19936;-54
2023/03/18 00:33:15;;;;;;;;;;;;;;;18.01;59.26;98974.84;2084195;28;19924;-51
2023/03/18 00:34:16;;;;;;;;;;;;;;;18.01;59.21;98972.16;2082973;28;20530;-54
2023/03/18 00:35:18;;;;;;;;;;;;;;;18.02;59.07;98970.28;2082558;28;20298;-58
2023/03/18 00:36:24;;;;;;;;;;;;;;;18.02;59.06;98965.75;2083118;28;19924;-54
2023/03/18 00:37:29;;;;;;;;;;;;;;;18.02;59.21;98964.94;2082787;28;20367;-55
2023/03/18 00:38:31;;;;;;;;;;;;;;;18.01;58.84;98974.84;2081226;28;20923;-55
2023/03/18 00:39:31;;;;;;;;;;;;;;;18.02;58.98;98970.28;2082793;28;19924;-58
2023/03/18 00:40:52;;;;;;;;;;;;;;;18.02;59.18;98970.28;2075559;28;19933;-56
2023/03/18 00:41:54;;;;;;;;;;;;;;;18.01;58.99;98963.28;2081028;28;19928;-58
2023/03/18 00:43:06;;;;;;;;;;;;;;;18.02;58.99;98968.44;2081944;28;20002;-56
2023/03/18 00:44:10;;;;;;;;;;;;;;;18.00;59.05;98964.31;2082140;28;19940;-56
2023/03/18 00:45:10;;;;;;;;;;;;;;;17.99;59.01;98962.63;2082208;28;19948;-53
2023/03/18 00:46:13;;;;;;;;;;;;;;;17.99;59.19;98966.13;2082505;28;19928;-53
2023/03/18 00:47:13;;;;;;;;;;;;;;;18.03;58.89;98963.94;2081127;28;20036;-55
2023/03/18 00:48:15;;;;;;;;;;;;;;;18.00;58.82;98965.13;2080210;28;20982;-59
2023/03/18 00:49:16;;;;;;;;;;;;;;;18.00;58.89;98954.41;2082498;28;19987;-54
2023/03/18 00:50:18;;;;;;;;;;;;;;;17.99;58.80;98958.09;2082225;28;21161;-55
2023/03/18 00:51:19;;;;;;;;;;;;;;;17.98;59.12;98959.13;2083215;28;19929;-57
2023/03/18 00:52:21;;;;;;;;;;;;;;;17.98;59.01;98959.13;2082231;28;19932;-55
2023/03/18 00:53:23;;;;;;;;;;;;;;;17.99;58.93;98957.25;2080450;28;19984;-55
2023/03/18 00:54:25;;;;;;;;;;;;;;;17.96;59.08;98954.97;2082008;28;20023;-59
2023/03/18 00:55:26;;;;;;;;;;;;;;;17.98;59.13;98950.25;2082018;28;19937;-55
2023/03/18 00:56:29;;;;;;;;;;;;;;;17.96;59.22;98954.97;2081593;28;20332;-54
2023/03/18 00:57:30;;;;;;;;;;;;;;;17.97;58.98;98954.78;2083229;28;19978;-56
2023/03/18 00:58:31;;;;;;;;;;;;;;;17.99;59.06;98952.72;2083058;28;20346;-58
2023/03/18 00:59:33;;;;;;;;;;;;;;;17.98;58.86;98950.25;2081242;28;20571;-57
2023/03/18 01:00:34;;;;;;;;;;;;;;;17.98;59.06;98951.06;2083722;28;19978;-57
2023/03/18 01:01:35;;;;;;;;;;;;;;;17.97;59.14;98949.41;2081637;28;19925;-54
2023/03/18 01:02:37;;;;;;;;;;;;;;;17.96;58.83;98955.78;2083082;28;19929;-53
2023/03/18 01:03:38;;;;;;;;;;;;;;;17.95;59.13;98950.63;2081870;28;19931;-58
2023/03/18 01:04:39;;;;;;;;;;;;;;;17.93;58.93;98945.44;2081243;28;20011;-59
2023/03/18 01:05:40;;;;;;;;;;;;;;;17.94;59.14;98948.94;2083437;28;19939;-58
2023/03/18 01:06:42;;;;;;;;;;;;;;;17.93;59.12;98945.44;2082031;28;21045;-54
2023/03/18 01:07:42;;;;;;;;;;;;;;;17.93;59.01;98945.44;2082590;28;20525;-55
2023/03/18 01:08:44;;;;;;;;;;;;;;;17.92;59.20;98938.44;2082649;28;19974;-55
2023/03/18 01:09:44;;;;;;;;;;;;;;;17.97;58.81;98944.06;2081294;28;19925;-56
2023/03/18 01:10:46;;;;;;;;;;;;;;;17.95;58.84;98942.59;2083206;28;19979;-55
2023/03/18 01:11:46;;;;;;;;;;;;;;;17.93;58.97;98945.44;2081962;28;20355;-56
2023/03/18 01:12:47;;;;;;;;;;;;;;;17.90;59.09;98943.16;2081810;28;19979;-54
2023/03/18 01:13:48;;;;;;;;;;;;;;;17.88;59.12;98942.50;2081428;28;19944;-55
2023/03/18 01:14:51;;;;;;;;;;;;;;;17.88;59.11;98942.50;2083111;28;19929;-53
2023/03/18 01:15:53;;;;;;;;;;;;;;;17.90;59.03;98937.78;2082085;28;19987;-55
2023/03/18 01:16:54;;;;;;;;;;;;;;;17.92;59.20;98942.97;2082807;28;20024;-58
2023/03/18 01:17:55;;;;;;;;;;;;;;;17.90;58.95;98937.78;2085006;28;20092;-52
2023/03/18 01:18:57;;;;;;;;;;;;;;;17.90;59.25;98937.78;2076687;28;19925;-56
2023/03/18 01:19:58;;;;;;;;;;;;;;;17.92;58.88;98932.22;2082635;28;20002;-55
2023/03/18 01:20:59;;;;;;;;;;;;;;;17.94;59.02;98939.06;2072574;28;21561;-56
2023/03/18 01:22:00;;;;;;;;;;;;;;;17.96;58.94;98939.69;2082986;28;19933;-55
2023/03/18 01:23:01;;;;;;;;;;;;;;;17.92;58.90;98929.56;2086301;28;19932;-56
2023/03/18 01:24:03;;;;;;;;;;;;;;;17.91;58.91;98930.56;2081871;28;20659;-55
2023/03/18 01:25:05;;;;;;;;;;;;;;;17.87;59.36;98927.44;2082476;28;19929;-58
2023/03/18 01:26:05;;;;;;;;;;;;;;;17.88;59.08;98926.41;2082822;28;20347;-55
2023/03/18 01:27:07;;;;;;;;;;;;;;;17.88;59.20;98933.63;2080177;28;19991;-58
2023/03/18 01:28:08;;;;;;;;;;;;;;;17.88;59.24;98934.44;2082215;28;19964;-58
2023/03/18 01:29:09;;;;;;;;;;;;;;;17.90;59.15;98934.28;2081821;28;20572;-56
2023/03/18 01:30:12;;;;;;;;;;;;;;;17.89;59.08;98928.09;2081174;28;19982;-51
2023/03/18 01:31:14;;;;;;;;;;;;;;;17.91;58.96;98931.38;2082315;28;20383;-56
2023/03/18 01:32:14;;;;;;;;;;;;;;;17.92;58.85;98926.88;2082838;28;20052;-56
2023/03/18 01:33:16;;;;;;;;;;;;;;;17.91;59.02;98927.88;2081939;28;20518;-56
2023/03/18 01:34:17;;;;;;;;;;;;;;;17.85;59.26;98929.47;2082272;28;20705;-56
2023/03/18 01:35:19;;;;;;;;;;;;;;;17.89;59.03;98921.88;2082029;28;19979;-53
2023/03/18 01:36:19;;;;;;;;;;;;;;;17.89;58.95;98925.41;2082630;28;19962;-56
2023/03/18 01:37:21;;;;;;;;;;;;;;;17.89;59.05;98921.88;2082393;28;19932;-54
2023/03/18 01:38:22;;;;;;;;;;;;;;;17.87;58.94;98924.75;2080559;28;19929;-55
2023/03/18 01:39:24;;;;;;;;;;;;;;;17.85;59.00;98922.25;2082152;28;19929;-57
2023/03/18 01:40:25;;;;;;;;;;;;;;;17.89;59.08;98919.19;2082931;28;19982;-58
2023/03/18 01:41:27;;;;;;;;;;;;;;;17.86;59.15;98926.59;2076584;28;19929;-59
2023/03/18 01:42:28;;;;;;;;;;;;;;;17.85;59.24;98924.09;2075595;28;20003;-54
2023/03/18 01:43:31;;;;;;;;;;;;;;;17.85;58.93;98924.09;2074606;28;20904;-56
2023/03/18 01:44:31;;;;;;;;;;;;;;;17.88;58.89;98920.22;2082976;28;19995;-55
2023/03/18 01:45:35;;;;;;;;;;;;;;;17.87;58.75;98924.75;2080054;28;20007;-58
2023/03/18 01:46:37;;;;;;;;;;;;;;;17.83;59.07;98921.63;2079730;28;19932;-53
2023/03/18 01:47:38;;;;;;;;;;;;;;;17.83;59.08;98912.75;2082288;28;19929;-58
2023/03/18 01:48:38;;;;;;;;;;;;;;;17.82;58.83;98919.94;2081670;28;19964;-56
2023/03/18 01:49:42;;;;;;;;;;;;;;;17.82;59.04;98919.13;2081559;28;20730;-57
2023/03/18 01:50:43;;;;;;;;;;;;;;;17.86;58.95;98923.94;2082176;28;19937;-56
2023/03/18 01:51:48;;;;;;;;;;;;;;;17.82;59.03;98919.94;2079421;28;19929;-54
2023/03/18 01:52:51;;;;;;;;;;;;;;;17.85;58.86;98914.19;2083391;28;20291;-54
2023/03/18 01:53:53;;;;;;;;;;;;;;;17.84;58.91;98917.09;2081073;28;19971;-57
2023/03/18 01:54:55;;;;;;;;;;;;;;;17.86;58.98;98915.88;2082873;28;19975;-57
2023/03/18 01:55:58;;;;;;;;;;;;;;;17.85;58.91;98916.06;2082321;28;19929;-57
2023/03/18 01:56:58;;;;;;;;;;;;;;;17.84;58.91;98919.78;2082592;28;19928;-55
2023/03/18 01:58:01;;;;;;;;;;;;;;;17.84;58.89;98915.22;2082009;28;20354;-54
2023/03/18 01:59:03;;;;;;;;;;;;;;;17.87;58.74;98919.38;2082265;28;19964;-58
2023/03/18 02:00:09;;;;;;;;;;;;;;;17.83;58.79;98918.94;2080795;28;19928;-55
2023/03/18 02:01:13;;;;;;;;;;;;;;;17.82;58.88;98913.75;2083081;28;19929;-57
2023/03/18 02:02:16;;;;;;;;;;;;;;;17.81;58.94;98907.56;2082148;28;19936;-54
2023/03/18 02:03:17;;;;;;;;;;;;;;;17.81;59.20;98915.63;2081732;28;19933;-58
2023/03/18 02:04:18;;;;;;;;;;;;;;;17.80;58.88;98913.09;2081448;28;19928;-54
2023/03/18 02:05:20;;;;;;;;;;;;;;;17.81;58.89;98914.78;2081423;28;20429;-55
2023/03/18 02:06:22;;;;;;;;;;;;;;;17.81;59.00;98914.78;2081728;28;19929;-55
2023/03/18 02:07:24;;;;;;;;;;;;;;;17.80;58.91;98913.09;2082515;28;19991;-56
2023/03/18 02:08:25;;;;;;;;;;;;;;;17.76;59.20;98912.63;2081094;28;19984;-57
2023/03/18 02:09:26;;;;;;;;;;;;;;;17.78;59.20;98905.25;2083499;28;19933;-54
2023/03/18 02:10:29;;;;;;;;;;;;;;;17.79;59.06;98906.09;2083020;28;19925;-57
2023/03/18 02:11:32;;;;;;;;;;;;;;;17.78;58.86;98904.41;2082350;28;19936;-56
2023/03/18 02:12:34;;;;;;;;;;;;;;;17.80;58.85;98913.97;2080329;28;19936;-57
2023/03/18 02:13:37;;;;;;;;;;;;;;;17.80;58.94;98907.75;2077686;28;20338;-59
2023/03/18 02:14:39;;;;;;;;;;;;;;;17.78;58.90;98904.41;2077827;28;19929;-57
2023/03/18 02:15:47;;;;;;;;;;;;;;;17.77;58.81;98902.72;2078248;28;19933;-55
2023/03/18 02:16:53;;;;;;;;;;;;;;;17.78;58.91;98901.72;2078460;28;19987;-55
2023/03/18 02:17:56;;;;;;;;;;;;;;;17.74;58.84;98898.56;2081786;28;19983;-56
2023/03/18 02:18:59;;;;;;;;;;;;;;;17.79;58.87;98900.72;2081124;28;19928;-54
2023/03/18 02:20:08;;;;;;;;;;;;;;;17.77;58.83;98895.50;2081255;28;20019;-55
2023/03/18 02:21:28;;;;;;;;;;;;;;;17.77;58.98;98900.03;2081073;28;19935;-57
2023/03/18 02:22:30;;;;;;;;;;;;;;;17.75;58.89;98894.06;2081588;28;19975;-56
2023/03/18 02:23:37;;;;;;;;;;;;;;;17.74;59.12;98892.38;2080750;28;19936;-58
2023/03/18 02:24:42;;;;;;;;;;;;;;;17.77;58.94;98887.47;2082067;28;20015;-54
2023/03/18 02:25:49;;;;;;;;;;;;;;;17.77;58.93;98894.69;2079725;28;19929;-58
2023/03/18 02:26:53;;;;;;;;;;;;;;;17.75;58.95;98891.38;2080555;28;20398;-55
2023/03/18 02:27:59;;;;;;;;;;;;;;;17.72;59.13;98897.09;2083714;28;19992;-58
2023/03/18 02:29:03;;;;;;;;;;;;;;;17.72;58.99;98889.06;2083268;28;19982;-56
2023/03/18 02:30:07;;;;;;;;;;;;;;;17.72;59.06;98889.06;2083517;28;19933;-57
2023/03/18 02:31:10;;;;;;;;;;;;;;;17.75;59.01;98891.38;2084042;28;19925;-58
2023/03/18 02:32:13;;;;;;;;;;;;;;;17.74;58.86;98884.34;2084708;28;19955;-55
2023/03/18 02:33:14;;;;;;;;;;;;;;;17.73;59.02;98888.06;2083698;28;19933;-57
2023/03/18 02:34:17;;;;;;;;;;;;;;;17.73;58.86;98883.50;2080335;28;20003;-56
2023/03/18 02:35:19;;;;;;;;;;;;;;;17.76;58.74;98890.34;2082580;28;19939;-57
2023/03/18 02:36:23;;;;;;;;;;;;;;;17.76;58.77;98893.84;2082068;28;19967;-54
2023/03/18 02:37:23;;;;;;;;;;;;;;;17.70;59.03;98894.63;2081533;28;19975;-55
2023/03/18 02:38:25;;;;;;;;;;;;;;;17.71;59.17;98885.53;2083438;28;19929;-58
2023/03/18 02:39:26;;;;;;;;;;;;;;;17.71;59.00;98884.72;2084454;28;19929;-54
2023/03/18 02:40:28;;;;;;;;;;;;;;;17.70;58.82;98891.94;2083619;28;20407;-57
2023/03/18 02:41:30;;;;;;;;;;;;;;;17.72;58.82;98883.69;2082161;28;19943;-54
2023/03/18 02:42:32;;;;;;;;;;;;;;;17.73;58.75;98893.41;2084164;28;19929;-53
2023/03/18 02:43:34;;;;;;;;;;;;;;;17.71;59.04;98887.41;2082981;28;19991;-57
2023/03/18 02:44:38;;;;;;;;;;;;;;;17.72;58.75;98894.41;2083702;28;20576;-57
2023/03/18 02:45:44;;;;;;;;;;;;;;;17.70;58.84;98893.81;2084526;28;19929;-58
2023/03/18 02:46:52;;;;;;;;;;;;;;;17.71;58.87;98893.59;2077650;28;19939;-58
2023/03/18 02:47:53;;;;;;;;;;;;;;;17.68;58.77;98898.53;2083672;28;20433;-54
2023/03/18 02:48:56;;;;;;;;;;;;;;;17.68;58.99;98899.34;2084038;28;19929;-58
2023/03/18 02:49:56;;;;;;;;;;;;;;;17.66;58.96;98890.66;2073019;28;19928;-53
2023/03/18 02:50:58;;;;;;;;;;;;;;;17.70;59.07;98893.81;2082964;28;20651;-57
2023/03/18 02:51:59;;;;;;;;;;;;;;;17.71;58.77;98896.28;2084616;28;19995;-56
2023/03/18 02:53:00;;;;;;;;;;;;;;;17.72;58.77;98892.59;2082257;28;20386;-52
2023/03/18 02:54:03;;;;;;;;;;;;;;;17.71;58.90;98892.78;2077118;28;20126;-56
2023/03/18 02:55:04;;;;;;;;;;;;;;;17.69;58.74;98892.13;2075610;28;19979;-58
2023/03/18 02:56:07;;;;;;;;;;;;;;;17.67;59.21;98894.19;2078253;28;19989;-58
2023/03/18 02:57:07;;;;;;;;;;;;;;;17.67;58.94;98902.25;2083801;28;19929;-57
2023/03/18 02:58:09;;;;;;;;;;;;;;;17.66;59.05;98887.97;2083013;28;19935;-55
2023/03/18 02:59:11;;;;;;;;;;;;;;;17.65;58.88;98894.38;2082467;28;19933;-55
2023/03/18 03:00:13;;;;;;;;;;;;;;;17.62;59.03;98892.91;2078280;28;19929;-55
2023/03/18 03:01:14;;;;;;;;;;;;;;;17.64;58.88;98893.53;2080768;28;20023;-55
2023/03/18 03:02:15;;;;;;;;;;;;;;;17.65;58.82;98894.38;2079529;28;19929;-56
2023/03/18 03:03:15;;;;;;;;;;;;;;;17.65;58.84;98897.06;2080529;28;20456;-56
2023/03/18 03:04:18;;;;;;;;;;;;;;;17.64;58.95;98896.22;2075942;28;19929;-57
2023/03/18 03:05:19;;;;;;;;;;;;;;;17.62;58.89;98895.56;2076009;28;20628;-57
2023/03/18 03:06:20;;;;;;;;;;;;;;;17.61;59.17;98887.75;2075262;28;20044;-56
2023/03/18 03:07:24;;;;;;;;;;;;;;;17.61;58.97;98888.56;2077554;28;19937;-54
2023/03/18 03:08:26;;;;;;;;;;;;;;;17.64;58.88;98888.19;2076361;28;20008;-54
2023/03/18 03:09:27;;;;;;;;;;;;;;;17.66;59.00;98901.38;2077229;28;19931;-53
2023/03/18 03:10:29;;;;;;;;;;;;;;;17.63;59.04;98901.75;2076074;28;20010;-58
2023/03/18 03:11:30;;;;;;;;;;;;;;;17.63;58.63;98894.56;2078382;28;19933;-53
2023/03/18 03:12:31;;;;;;;;;;;;;;;17.65;58.88;98892.50;2078865;28;19995;-56
2023/03/18 03:13:32;;;;;;;;;;;;;;;17.64;58.68;98898.09;2078881;28;20872;-58
2023/03/18 03:14:35;;;;;;;;;;;;;;;17.64;59.01;98896.22;2081072;28;19984;-55
2023/03/18 03:15:36;;;;;;;;;;;;;;;17.65;58.90;98892.50;2078115;28;19956;-54
2023/03/18 03:16:38;;;;;;;;;;;;;;;17.65;58.66;98894.38;2073818;28;19929;-57
2023/03/18 03:17:38;;;;;;;;;;;;;;;17.64;58.83;98895.41;2077750;28;19925;-57
2023/03/18 03:18:40;;;;;;;;;;;;;;;17.62;59.00;98895.56;2076252;28;19937;-54
2023/03/18 03:19:41;;;;;;;;;;;;;;;17.60;59.01;98896.78;2076607;28;20851;-55
2023/03/18 03:20:44;;;;;;;;;;;;;;;17.59;58.88;98895.97;2072463;28;19957;-55
2023/03/18 03:21:46;;;;;;;;;;;;;;;17.60;58.66;98894.94;2075255;28;19964;-58
2023/03/18 03:22:46;;;;;;;;;;;;;;;17.63;58.71;98897.25;2076045;28;20023;-58
2023/03/18 03:23:48;;;;;;;;;;;;;;;17.61;58.69;98899.28;2077969;28;19931;-57
2023/03/18 03:24:48;;;;;;;;;;;;;;;17.59;58.90;98901.31;2075768;28;19928;-56
2023/03/18 03:25:50;;;;;;;;;;;;;;;17.60;58.97;98902.16;2080298;28;19975;-57
2023/03/18 03:26:50;;;;;;;;;;;;;;;17.58;59.04;98894.31;2079418;28;19963;-55
2023/03/18 03:27:52;;;;;;;;;;;;;;;17.61;59.05;98896.59;2079773;28;20011;-57
2023/03/18 03:28:52;;;;;;;;;;;;;;;17.62;58.76;98895.56;2074951;28;20264;-57
2023/03/18 03:29:55;;;;;;;;;;;;;;;17.62;58.74;98900.94;2076665;28;19935;-57
2023/03/18 03:30:57;;;;;;;;;;;;;;;17.62;58.78;98900.94;2079270;28;20276;-55
2023/03/18 03:31:58;;;;;;;;;;;;;;;17.58;59.04;98902.34;2077502;28;19939;-55
2023/03/18 03:33:00;;;;;;;;;;;;;;;17.57;59.06;98900.69;2077297;28;20006;-55
2023/03/18 03:34:03;;;;;;;;;;;;;;;17.56;58.71;98901.72;2076171;28;20039;-57
2023/03/18 03:35:04;;;;;;;;;;;;;;;17.57;58.85;98905.22;2081611;28;19999;-57
2023/03/18 03:36:05;;;;;;;;;;;;;;;17.58;58.89;98899.69;2079416;28;20008;-56
2023/03/18 03:37:06;;;;;;;;;;;;;;;17.57;58.87;98900.69;2076447;28;19936;-58
2023/03/18 03:38:08;;;;;;;;;;;;;;;17.55;58.99;98904.56;2078131;28;20702;-53
2023/03/18 03:39:09;;;;;;;;;;;;;;;17.55;59.04;98905.44;2076555;28;19933;-57
2023/03/18 03:40:11;;;;;;;;;;;;;;;17.54;59.07;98905.59;2081697;28;19931;-58
2023/03/18 03:41:14;;;;;;;;;;;;;;;17.56;58.89;98898.19;2080263;28;20039;-56
2023/03/18 03:42:15;;;;;;;;;;;;;;;17.56;58.74;98907.06;2083522;28;19948;-54
2023/03/18 03:43:16;;;;;;;;;;;;;;;17.53;58.95;98904.78;2079246;28;19924;-57
2023/03/18 03:44:18;;;;;;;;;;;;;;;17.56;58.74;98909.75;2076508;28;20714;-55
2023/03/18 03:45:20;;;;;;;;;;;;;;;17.54;58.85;98913.66;2075692;28;19933;-54
2023/03/18 03:46:21;;;;;;;;;;;;;;;17.54;59.08;98909.09;2074089;28;19984;-57
2023/03/18 03:47:22;;;;;;;;;;;;;;;17.54;59.02;98913.66;2073381;28;20015;-55
2023/03/18 03:48:24;;;;;;;;;;;;;;;17.53;58.83;98912.81;2070549;28;20926;-55
2023/03/18 03:49:24;;;;;;;;;;;;;;;17.54;59.00;98916.31;2064038;28;19936;-57
2023/03/18 03:50:25;;;;;;;;;;;;;;;17.54;58.96;98911.78;2069854;28;19932;-57
2023/03/18 03:51:26;;;;;;;;;;;;;;;17.52;58.88;98908.47;2078482;28;19933;-58
2023/03/18 03:52:28;;;;;;;;;;;;;;;17.51;58.90;98898.75;2081566;28;19933;-56
2023/03/18 03:53:29;;;;;;;;;;;;;;;17.51;58.88;98906.81;2069409;28;20020;-56
2023/03/18 03:54:30;;;;;;;;;;;;;;;17.49;59.01;98900.78;2078880;28;20602;-56
2023/03/18 03:55:32;;;;;;;;;;;;;;;17.51;59.06;98898.75;2082145;28;19936;-56
2023/03/18 03:56:33;;;;;;;;;;;;;;;17.51;58.73;98903.31;2079765;28;19936;-58
2023/03/18 03:57:34;;;;;;;;;;;;;;;17.52;58.76;98903.09;2082135;28;19974;-57
2023/03/18 03:58:36;;;;;;;;;;;;;;;17.52;58.93;98900.41;2079273;28;19933;-58
2023/03/18 03:59:36;;;;;;;;;;;;;;;17.52;58.92;98902.25;2081897;28;20055;-53
2023/03/18 04:00:39;;;;;;;;;;;;;;;17.52;58.84;98908.47;2080940;28;19952;-56
2023/03/18 04:01:40;;;;;;;;;;;;;;;17.49;58.85;98902.66;2082385;28;20003;-54
2023/03/18 04:02:42;;;;;;;;;;;;;;;17.49;58.96;98910.69;2081493;28;19941;-57
2023/03/18 04:03:43;;;;;;;;;;;;;;;17.48;59.03;98907.19;2076386;28;20075;-57
2023/03/18 04:04:45;;;;;;;;;;;;;;;17.49;59.20;98913.38;2080526;28;19933;-55
2023/03/18 04:05:46;;;;;;;;;;;;;;;17.49;58.88;98906.16;2082567;28;19929;-55
2023/03/18 04:06:47;;;;;;;;;;;;;;;17.50;58.82;98907.00;2082317;28;20403;-58
2023/03/18 04:07:48;;;;;;;;;;;;;;;17.50;58.89;98913.19;2082999;28;19925;-57
2023/03/18 04:08:49;;;;;;;;;;;;;;;17.49;58.64;98908.84;2082522;28;19929;-58
2023/03/18 04:09:51;;;;;;;;;;;;;;;17.51;58.91;98908.66;2083551;28;19975;-54
2023/03/18 04:10:52;;;;;;;;;;;;;;;17.49;58.84;98911.53;2081901;28;20060;-56
2023/03/18 04:11:52;;;;;;;;;;;;;;;17.50;58.77;98910.53;2082964;28;20338;-56
2023/03/18 04:12:54;;;;;;;;;;;;;;;17.49;58.81;98910.69;2082591;28;19925;-55
2023/03/18 04:13:54;;;;;;;;;;;;;;;17.48;58.88;98915.22;2081906;28;19932;-57
2023/03/18 04:14:56;;;;;;;;;;;;;;;17.46;58.63;98914.59;2082747;28;19929;-56
2023/03/18 04:15:58;;;;;;;;;;;;;;;17.48;58.71;98912.56;2082218;28;20480;-53
2023/03/18 04:16:59;;;;;;;;;;;;;;;17.47;58.85;98912.72;2082514;28;20283;-57
2023/03/18 04:18:05;;;;;;;;;;;;;;;17.44;58.70;98913.97;2082810;28;20023;-57
2023/03/18 04:19:07;;;;;;;;;;;;;;;17.43;58.99;98923.00;2080628;28;19980;-52
2023/03/18 04:20:08;;;;;;;;;;;;;;;17.45;58.80;98912.09;2082772;28;20020;-53
2023/03/18 04:21:10;;;;;;;;;;;;;;;17.43;58.99;98907.75;2082545;28;21752;-55
2023/03/18 04:22:10;;;;;;;;;;;;;;;17.45;58.86;98912.94;2082156;28;19929;-56
2023/03/18 04:23:13;;;;;;;;;;;;;;;17.42;58.91;98907.94;2083097;28;20024;-57
2023/03/18 04:24:13;;;;;;;;;;;;;;;17.43;58.87;98904.25;2081677;28;20581;-58
2023/03/18 04:25:14;;;;;;;;;;;;;;;17.43;59.08;98907.75;2082834;28;19929;-54
2023/03/18 04:26:15;;;;;;;;;;;;;;;17.44;58.90;98905.91;2082361;28;19991;-55
2023/03/18 04:27:17;;;;;;;;;;;;;;;17.45;58.82;98907.56;2083144;28;19936;-54
2023/03/18 04:28:17;;;;;;;;;;;;;;;17.43;59.00;98898.88;2082659;28;19929;-56
2023/03/18 04:29:19;;;;;;;;;;;;;;;17.43;59.00;98902.38;2081047;28;19935;-54
2023/03/18 04:30:22;;;;;;;;;;;;;;;17.43;58.70;98894.34;2081781;28;20938;-56
2023/03/18 04:31:24;;;;;;;;;;;;;;;17.41;58.82;98903.59;2082753;28;20368;-57
2023/03/18 04:32:25;;;;;;;;;;;;;;;17.39;58.96;98905.66;2081880;28;19925;-55
2023/03/18 04:33:26;;;;;;;;;;;;;;;17.41;58.86;98900.91;2082705;28;19983;-55
2023/03/18 04:34:27;;;;;;;;;;;;;;;17.39;59.00;98902.97;2082934;28;19955;-57
2023/03/18 04:35:29;;;;;;;;;;;;;;;17.40;59.00;98904.63;2082648;28;19925;-56
2023/03/18 04:36:30;;;;;;;;;;;;;;;17.39;58.96;98908.34;2081731;28;19991;-56
2023/03/18 04:37:33;;;;;;;;;;;;;;;17.37;58.79;98913.03;2081976;28;19931;-55
2023/03/18 04:38:34;;;;;;;;;;;;;;;17.40;58.87;98912.66;2082638;28;19939;-55
2023/03/18 04:39:35;;;;;;;;;;;;;;;17.41;58.65;98906.28;2084093;28;20043;-56
2023/03/18 04:40:36;;;;;;;;;;;;;;;17.37;58.74;98902.31;2082089;28;19984;-57
2023/03/18 04:41:37;;;;;;;;;;;;;;;17.38;58.87;98901.28;2082400;28;19932;-55
2023/03/18 04:42:38;;;;;;;;;;;;;;;17.37;58.96;98905.00;2082469;28;19983;-57
2023/03/18 04:43:39;;;;;;;;;;;;;;;17.35;58.79;98905.19;2081920;28;20491;-59
2023/03/18 04:44:40;;;;;;;;;;;;;;;17.37;59.00;98905.00;2082103;28;19937;-58
2023/03/18 04:45:40;;;;;;;;;;;;;;;17.35;58.78;98899.81;2081623;28;19932;-58
2023/03/18 04:46:43;;;;;;;;;;;;;;;17.38;58.93;98903.97;2081963;28;19933;-57
2023/03/18 04:47:44;;;;;;;;;;;;;;;17.36;58.86;98900.66;2081881;28;19939;-57
2023/03/18 04:48:46;;;;;;;;;;;;;;;17.37;58.86;98902.31;2082102;28;19979;-59
2023/03/18 04:49:46;;;;;;;;;;;;;;;17.37;58.83;98896.97;2082279;28;19933;-57
2023/03/18 04:50:48;;;;;;;;;;;;;;;17.37;58.92;98891.59;2083646;28;19925;-59
2023/03/18 04:51:48;;;;;;;;;;;;;;;17.39;58.82;98897.59;2082175;28;20402;-58
2023/03/18 04:52:50;;;;;;;;;;;;;;;17.35;58.72;98894.44;2081980;28;19984;-58
2023/03/18 04:53:51;;;;;;;;;;;;;;;17.36;58.97;98893.44;2081535;28;19964;-57
2023/03/18 04:54:52;;;;;;;;;;;;;;;17.36;58.74;98895.31;2069450;28;19972;-58
2023/03/18 04:55:53;;;;;;;;;;;;;;;17.36;58.77;98898.00;2067822;28;20358;-58
2023/03/18 04:56:54;;;;;;;;;;;;;;;17.32;58.99;98894.84;2079205;28;19929;-57
2023/03/18 04:57:55;;;;;;;;;;;;;;;17.35;58.99;98893.63;2082603;28;20394;-59
2023/03/18 04:58:56;;;;;;;;;;;;;;;17.35;58.85;98889.09;2063084;28;19960;-58
2023/03/18 04:59:57;;;;;;;;;;;;;;;17.36;58.65;98895.31;2078859;28;20346;-58
2023/03/18 05:00:58;;;;;;;;;;;;;;;17.34;58.83;98897.34;2082743;28;19928;-58
2023/03/18 05:02:00;;;;;;;;;;;;;;;17.31;58.91;98893.19;2082555;28;19929;-59
2023/03/18 05:03:02;;;;;;;;;;;;;;;17.33;58.95;98888.47;2081420;28;19986;-59
2023/03/18 05:04:02;;;;;;;;;;;;;;;17.29;58.67;98895.22;2081839;28;19936;-57
2023/03/18 05:05:04;;;;;;;;;;;;;;;17.31;58.76;98887.81;2082557;28;20005;-58
2023/03/18 05:06:05;;;;;;;;;;;;;;;17.33;58.73;98893.84;2082185;28;19925;-58
2023/03/18 05:07:07;;;;;;;;;;;;;;;17.33;58.83;98895.69;2082374;28;19975;-59
2023/03/18 05:08:07;;;;;;;;;;;;;;;17.34;58.84;98886.63;2082199;28;19924;-58
2023/03/18 05:09:09;;;;;;;;;;;;;;;17.34;58.76;98886.63;2082267;28;19986;-58
2023/03/18 05:10:10;;;;;;;;;;;;;;;17.33;58.91;98887.66;2082875;28;19928;-58
2023/03/18 05:11:11;;;;;;;;;;;;;;;17.27;58.76;98897.25;2083753;28;19929;-58
2023/03/18 05:12:13;;;;;;;;;;;;;;;17.30;58.83;98880.81;2082595;28;21221;-59
2023/03/18 05:13:15;;;;;;;;;;;;;;;17.30;58.75;98888.00;2080908;28;20394;-58
2023/03/18 05:14:15;;;;;;;;;;;;;;;17.28;58.78;98890.06;2082389;28;19933;-58
2023/03/18 05:15:17;;;;;;;;;;;;;;;17.30;58.78;98885.31;2083367;28;20047;-58
2023/03/18 05:16:17;;;;;;;;;;;;;;;17.32;58.92;98889.47;2082068;28;19929;-58
2023/03/18 05:17:20;;;;;;;;;;;;;;;17.31;58.84;98887.00;2083161;28;19971;-55
2023/03/18 05:18:21;;;;;;;;;;;;;;;17.29;58.93;98886.34;2081405;28;20687;-55
2023/03/18 05:19:22;;;;;;;;;;;;;;;17.27;58.96;98891.06;2082690;28;19940;-58
2023/03/18 05:20:23;;;;;;;;;;;;;;;17.27;58.76;98896.41;2082789;28;19925;-54
2023/03/18 05:21:24;;;;;;;;;;;;;;;17.26;58.89;98900.94;2083085;28;19925;-60
2023/03/18 05:22:25;;;;;;;;;;;;;;;17.28;58.89;98887.38;2082074;28;19924;-55